sensor_id;sensor_type;location;lat;lon;timestamp;temperature;humidity
15257;DHT22;7731;50.720;6.912;2023-12-20T00:00:41;7.50;99.90
15257;DHT22;7731;50.720;6.912;2023-12-20T00:03:14;7.50;99.90
15257;DHT22;7731;50.720;6.912;2023-12-20T00:05:47;7.50;99.90
15257;DHT22;7731;50.720;6.912;2023-12-20T00:08:18;7.50;99.90
15257;DHT22;7731;50.720;6.912;2023-12-20T00:10:48;7.50;99.90
15257;DHT22;7731;50.720;6.912;2023-12-20T00:13:18;7.40;99.90
15257;DHT22;7731;50.720;6.912;2023-12-20T00:15:49;7.40;99.90
15257;DHT22;7731;50.720;6.912;2023-12-20T00:18:22;7.40;99.90
15257;DHT22;7731;50.720;6.912;2023-12-20T00:20:52;7.30;99.90
15257;DHT22;7731;50.720;6.912;2023-12-20T00:23:23;7.30;99.90
15257;DHT22;7731;50.720;6.912;2023-12-20T00:25:55;7.30;99.90
15257;DHT22;7731;50.720;6.912;2023-12-20T00:28:26;7.50;99.90
15257;DHT22;7731;50.720;6.912;2023-12-20T00:30:56;7.50;99.90
15257;DHT22;7731;50.720;6.912;2023-12-20T00:33:29;7.50;99.90
15257;DHT22;7731;50.720;6.912;2023-12-20T00:35:59;7.50;99.90
15257;DHT22;7731;50.720;6.912;2023-12-20T00:38:32;7.50;99.90
15257;DHT22;7731;50.720;6.912;2023-12-20T00:41:03;7.40;99.90
15257;DHT22;7731;50.720;6.912;2023-12-20T00:43:33;7.50;99.90
15257;DHT22;7731;50.720;6.912;2023-12-20T00:46:03;7.50;99.90
15257;DHT22;7731;50.720;6.912;2023-12-20T00:48:36;7.50;99.90
15257;DHT22;7731;50.720;6.912;2023-12-20T00:51:09;7.50;99.90
15257;DHT22;7731;50.720;6.912;2023-12-20T00:53:39;7.50;99.90
15257;DHT22;7731;50.720;6.912;2023-12-20T00:56:10;7.50;99.90
15257;DHT22;7731;50.720;6.912;2023-12-20T00:58:40;7.60;99.90
15257;DHT22;7731;50.720;6.912;2023-12-20T01:01:11;7.70;99.90
15257;DHT22;7731;50.720;6.912;2023-12-20T01:03:44;7.80;99.90
15257;DHT22;7731;50.720;6.912;2023-12-20T01:06:14;7.70;99.90
15257;DHT22;7731;50.720;6.912;2023-12-20T01:08:45;7.80;99.90
15257;DHT22;7731;50.720;6.912;2023-12-20T01:11:15;7.70;99.90
15257;DHT22;7731;50.720;6.912;2023-12-20T01:13:45;7.60;99.90
15257;DHT22;7731;50.720;6.912;2023-12-20T01:16:15;7.60;99.90
15257;DHT22;7731;50.720;6.912;2023-12-20T01:18:48;7.50;99.90
15257;DHT22;7731;50.720;6.912;2023-12-20T01:21:19;7.50;99.90
15257;DHT22;7731;50.720;6.912;2023-12-20T01:23:49;7.50;99.90
15257;DHT22;7731;50.720;6.912;2023-12-20T01:26:19;7.50;99.90
15257;DHT22;7731;50.720;6.912;2023-12-20T01:28:49;7.60;99.90
15257;DHT22;7731;50.720;6.912;2023-12-20T01:31:20;7.60;99.90
15257;DHT22;7731;50.720;6.912;2023-12-20T01:33:53;7.70;99.90
15257;DHT22;7731;50.720;6.912;2023-12-20T01:36:23;7.60;99.90
15257;DHT22;7731;50.720;6.912;2023-12-20T01:38:54;7.60;99.90
15257;DHT22;7731;50.720;6.912;2023-12-20T01:41:24;7.60;99.90
15257;DHT22;7731;50.720;6.912;2023-12-20T01:43:54;7.50;99.90
15257;DHT22;7731;50.720;6.912;2023-12-20T01:46:26;7.40;99.90
15257;DHT22;7731;50.720;6.912;2023-12-20T01:48:59;7.50;99.90
15257;DHT22;7731;50.720;6.912;2023-12-20T01:51:30;7.50;99.90
15257;DHT22;7731;50.720;6.912;2023-12-20T01:54:00;7.50;99.90
15257;DHT22;7731;50.720;6.912;2023-12-20T01:56:32;7.60;99.90
15257;DHT22;7731;50.720;6.912;2023-12-20T01:59:03;7.60;99.90
15257;DHT22;7731;50.720;6.912;2023-12-20T02:01:34;7.50;99.90
15257;DHT22;7731;50.720;6.912;2023-12-20T02:04:10;7.50;99.90
15257;DHT22;7731;50.720;6.912;2023-12-20T02:06:43;7.50;99.90
15257;DHT22;7731;50.720;6.912;2023-12-20T02:09:16;7.50;99.90
15257;DHT22;7731;50.720;6.912;2023-12-20T02:11:46;7.50;99.90
15257;DHT22;7731;50.720;6.912;2023-12-20T02:14:17;7.40;99.90
15257;DHT22;7731;50.720;6.912;2023-12-20T02:16:47;7.30;99.90
15257;DHT22;7731;50.720;6.912;2023-12-20T02:19:23;7.10;99.90
15257;DHT22;7731;50.720;6.912;2023-12-20T02:22:10;6.90;99.90
15257;DHT22;7731;50.720;6.912;2023-12-20T02:24:41;6.60;99.90
15257;DHT22;7731;50.720;6.912;2023-12-20T02:27:12;6.50;99.90
15257;DHT22;7731;50.720;6.912;2023-12-20T02:29:44;6.30;99.90
15257;DHT22;7731;50.720;6.912;2023-12-20T02:32:19;6.20;99.90
15257;DHT22;7731;50.720;6.912;2023-12-20T02:34:51;6.10;99.90
15257;DHT22;7731;50.720;6.912;2023-12-20T02:37:24;6.10;99.90
15257;DHT22;7731;50.720;6.912;2023-12-20T02:39:55;6.00;99.90
15257;DHT22;7731;50.720;6.912;2023-12-20T02:42:25;5.90;99.90
15257;DHT22;7731;50.720;6.912;2023-12-20T02:44:55;5.90;99.90
15257;DHT22;7731;50.720;6.912;2023-12-20T02:47:25;5.80;99.90
15257;DHT22;7731;50.720;6.912;2023-12-20T02:49:57;5.80;99.90
15257;DHT22;7731;50.720;6.912;2023-12-20T02:52:30;5.80;99.90
15257;DHT22;7731;50.720;6.912;2023-12-20T02:55:00;5.80;99.90
15257;DHT22;7731;50.720;6.912;2023-12-20T02:57:31;5.80;99.90
15257;DHT22;7731;50.720;6.912;2023-12-20T03:00:04;5.80;99.90
15257;DHT22;7731;50.720;6.912;2023-12-20T03:02:36;5.80;99.90
15257;DHT22;7731;50.720;6.912;2023-12-20T03:05:07;5.90;99.90
15257;DHT22;7731;50.720;6.912;2023-12-20T03:07:42;6.00;99.90
15257;DHT22;7731;50.720;6.912;2023-12-20T03:10:13;6.30;99.90
15257;DHT22;7731;50.720;6.912;2023-12-20T03:12:53;6.30;99.90
15257;DHT22;7731;50.720;6.912;2023-12-20T03:15:24;6.20;99.90
15257;DHT22;7731;50.720;6.912;2023-12-20T03:17:55;6.20;99.90
15257;DHT22;7731;50.720;6.912;2023-12-20T03:20:26;6.30;99.90
15257;DHT22;7731;50.720;6.912;2023-12-20T03:23:01;6.30;99.90
15257;DHT22;7731;50.720;6.912;2023-12-20T03:25:32;6.60;99.90
15257;DHT22;7731;50.720;6.912;2023-12-20T03:28:05;6.80;99.90
15257;DHT22;7731;50.720;6.912;2023-12-20T03:30:35;7.00;99.90
15257;DHT22;7731;50.720;6.912;2023-12-20T03:33:06;6.90;99.90
15257;DHT22;7731;50.720;6.912;2023-12-20T03:35:36;6.90;99.90
15257;DHT22;7731;50.720;6.912;2023-12-20T03:38:09;7.00;99.90
15257;DHT22;7731;50.720;6.912;2023-12-20T03:40:39;7.20;99.90
15257;DHT22;7731;50.720;6.912;2023-12-20T03:43:10;7.10;99.90
15257;DHT22;7731;50.720;6.912;2023-12-20T03:45:40;7.10;99.90
15257;DHT22;7731;50.720;6.912;2023-12-20T03:48:11;7.10;99.90
15257;DHT22;7731;50.720;6.912;2023-12-20T03:50:42;7.20;99.90
15257;DHT22;7731;50.720;6.912;2023-12-20T03:53:17;7.20;99.90
15257;DHT22;7731;50.720;6.912;2023-12-20T03:55:48;7.10;99.90
15257;DHT22;7731;50.720;6.912;2023-12-20T03:58:18;7.10;99.90
15257;DHT22;7731;50.720;6.912;2023-12-20T04:00:48;7.00;99.90
15257;DHT22;7731;50.720;6.912;2023-12-20T04:03:19;6.90;99.90
15257;DHT22;7731;50.720;6.912;2023-12-20T04:05:49;7.00;99.90
15257;DHT22;7731;50.720;6.912;2023-12-20T04:08:22;6.90;99.90
15257;DHT22;7731;50.720;6.912;2023-12-20T04:10:53;6.90;99.90
15257;DHT22;7731;50.720;6.912;2023-12-20T04:13:23;6.90;99.90
15257;DHT22;7731;50.720;6.912;2023-12-20T04:15:53;7.00;99.90
15257;DHT22;7731;50.720;6.912;2023-12-20T04:18:24;7.10;99.90
15257;DHT22;7731;50.720;6.912;2023-12-20T04:20:55;7.10;99.90
15257;DHT22;7731;50.720;6.912;2023-12-20T04:23:28;7.10;99.90
15257;DHT22;7731;50.720;6.912;2023-12-20T04:25:58;7.10;99.90
15257;DHT22;7731;50.720;6.912;2023-12-20T04:28:28;7.00;99.90
15257;DHT22;7731;50.720;6.912;2023-12-20T04:30:59;7.00;99.90
15257;DHT22;7731;50.720;6.912;2023-12-20T04:33:29;6.90;99.90
15257;DHT22;7731;50.720;6.912;2023-12-20T04:36:00;6.90;99.90
15257;DHT22;7731;50.720;6.912;2023-12-20T04:38:34;7.00;99.90
15257;DHT22;7731;50.720;6.912;2023-12-20T04:41:06;7.10;99.90
15257;DHT22;7731;50.720;6.912;2023-12-20T04:43:37;7.00;99.90
15257;DHT22;7731;50.720;6.912;2023-12-20T04:46:12;6.90;99.90
15257;DHT22;7731;50.720;6.912;2023-12-20T04:48:42;7.10;99.90
15257;DHT22;7731;50.720;6.912;2023-12-20T04:51:12;7.00;99.90
15257;DHT22;7731;50.720;6.912;2023-12-20T04:53:45;7.00;99.90
15257;DHT22;7731;50.720;6.912;2023-12-20T04:56:16;6.90;99.90
15257;DHT22;7731;50.720;6.912;2023-12-20T04:58:46;7.00;99.90
15257;DHT22;7731;50.720;6.912;2023-12-20T05:01:16;7.00;99.90
15257;DHT22;7731;50.720;6.912;2023-12-20T05:03:48;7.00;99.90
15257;DHT22;7731;50.720;6.912;2023-12-20T05:06:18;6.90;99.90
15257;DHT22;7731;50.720;6.912;2023-12-20T05:08:51;7.00;99.90
15257;DHT22;7731;50.720;6.912;2023-12-20T05:11:21;7.00;99.90
15257;DHT22;7731;50.720;6.912;2023-12-20T05:13:51;7.10;99.90
15257;DHT22;7731;50.720;6.912;2023-12-20T05:16:22;7.00;99.90
15257;DHT22;7731;50.720;6.912;2023-12-20T05:18:52;7.10;99.90
15257;DHT22;7731;50.720;6.912;2023-12-20T05:21:25;7.10;99.90
15257;DHT22;7731;50.720;6.912;2023-12-20T05:23:58;7.10;99.90
15257;DHT22;7731;50.720;6.912;2023-12-20T05:26:28;7.00;99.90
15257;DHT22;7731;50.720;6.912;2023-12-20T05:29:03;7.00;99.90
15257;DHT22;7731;50.720;6.912;2023-12-20T05:31:33;6.90;99.90
15257;DHT22;7731;50.720;6.912;2023-12-20T05:34:03;6.90;99.90
15257;DHT22;7731;50.720;6.912;2023-12-20T05:36:34;7.00;99.90
15257;DHT22;7731;50.720;6.912;2023-12-20T05:39:08;7.10;99.90
15257;DHT22;7731;50.720;6.912;2023-12-20T05:41:39;7.00;99.90
15257;DHT22;7731;50.720;6.912;2023-12-20T05:44:09;7.00;99.90
15257;DHT22;7731;50.720;6.912;2023-12-20T05:46:39;7.00;99.90
15257;DHT22;7731;50.720;6.912;2023-12-20T05:49:10;6.90;99.90
15257;DHT22;7731;50.720;6.912;2023-12-20T05:51:40;6.90;99.90
15257;DHT22;7731;50.720;6.912;2023-12-20T05:54:15;6.90;99.90
15257;DHT22;7731;50.720;6.912;2023-12-20T05:56:46;6.70;99.90
15257;DHT22;7731;50.720;6.912;2023-12-20T05:59:17;6.70;99.90
15257;DHT22;7731;50.720;6.912;2023-12-20T06:01:47;6.70;99.90
15257;DHT22;7731;50.720;6.912;2023-12-20T06:04:18;6.80;99.90
15257;DHT22;7731;50.720;6.912;2023-12-20T06:06:53;6.70;99.90
15257;DHT22;7731;50.720;6.912;2023-12-20T06:09:26;6.70;99.90
15257;DHT22;7731;50.720;6.912;2023-12-20T06:11:58;6.70;99.90
15257;DHT22;7731;50.720;6.912;2023-12-20T06:14:28;6.70;99.90
15257;DHT22;7731;50.720;6.912;2023-12-20T06:17:00;6.70;99.90
15257;DHT22;7731;50.720;6.912;2023-12-20T06:19:32;6.70;99.90
15257;DHT22;7731;50.720;6.912;2023-12-20T06:22:03;6.80;99.90
15257;DHT22;7731;50.720;6.912;2023-12-20T06:24:35;6.80;99.90
15257;DHT22;7731;50.720;6.912;2023-12-20T06:27:06;6.80;99.90
15257;DHT22;7731;50.720;6.912;2023-12-20T06:29:38;6.80;99.90
15257;DHT22;7731;50.720;6.912;2023-12-20T06:32:13;6.90;99.90
15257;DHT22;7731;50.720;6.912;2023-12-20T06:34:43;7.00;99.90
15257;DHT22;7731;50.720;6.912;2023-12-20T06:37:14;7.00;99.90
15257;DHT22;7731;50.720;6.912;2023-12-20T06:39:47;6.90;99.90
15257;DHT22;7731;50.720;6.912;2023-12-20T06:42:18;7.00;99.90
15257;DHT22;7731;50.720;6.912;2023-12-20T06:44:48;6.90;99.90
15257;DHT22;7731;50.720;6.912;2023-12-20T06:47:19;7.00;99.90
15257;DHT22;7731;50.720;6.912;2023-12-20T06:49:49;7.00;99.90
15257;DHT22;7731;50.720;6.912;2023-12-20T06:52:19;6.90;99.90
15257;DHT22;7731;50.720;6.912;2023-12-20T06:54:52;6.90;99.90
15257;DHT22;7731;50.720;6.912;2023-12-20T06:57:23;7.00;99.90
15257;DHT22;7731;50.720;6.912;2023-12-20T06:59:53;7.10;99.90
15257;DHT22;7731;50.720;6.912;2023-12-20T07:02:24;7.10;99.90
15257;DHT22;7731;50.720;6.912;2023-12-20T07:04:57;7.00;99.90
15257;DHT22;7731;50.720;6.912;2023-12-20T07:07:27;7.00;99.90
15257;DHT22;7731;50.720;6.912;2023-12-20T07:10:00;6.90;99.90
15257;DHT22;7731;50.720;6.912;2023-12-20T07:12:30;6.90;99.90
15257;DHT22;7731;50.720;6.912;2023-12-20T07:15:01;6.90;99.90
15257;DHT22;7731;50.720;6.912;2023-12-20T07:17:32;7.00;99.90
15257;DHT22;7731;50.720;6.912;2023-12-20T07:20:07;6.80;99.90
15257;DHT22;7731;50.720;6.912;2023-12-20T07:22:39;6.90;99.90
15257;DHT22;7731;50.720;6.912;2023-12-20T07:25:13;6.90;99.90
15257;DHT22;7731;50.720;6.912;2023-12-20T07:27:44;7.00;99.90
15257;DHT22;7731;50.720;6.912;2023-12-20T07:30:15;7.00;99.90
15257;DHT22;7731;50.720;6.912;2023-12-20T07:32:48;7.00;99.90
15257;DHT22;7731;50.720;6.912;2023-12-20T07:35:19;7.00;99.90
15257;DHT22;7731;50.720;6.912;2023-12-20T07:37:50;6.90;99.90
15257;DHT22;7731;50.720;6.912;2023-12-20T07:40:23;6.80;99.90
15257;DHT22;7731;50.720;6.912;2023-12-20T07:42:53;6.80;99.90
15257;DHT22;7731;50.720;6.912;2023-12-20T07:45:25;6.80;99.90
15257;DHT22;7731;50.720;6.912;2023-12-20T07:47:55;6.90;99.90
15257;DHT22;7731;50.720;6.912;2023-12-20T07:50:25;6.90;99.90
15257;DHT22;7731;50.720;6.912;2023-12-20T07:52:56;6.80;99.90
15257;DHT22;7731;50.720;6.912;2023-12-20T07:55:29;6.90;99.90
15257;DHT22;7731;50.720;6.912;2023-12-20T07:58:00;6.90;99.90
15257;DHT22;7731;50.720;6.912;2023-12-20T08:00:35;6.90;99.90
15257;DHT22;7731;50.720;6.912;2023-12-20T08:03:05;7.00;99.90
15257;DHT22;7731;50.720;6.912;2023-12-20T08:05:36;7.00;99.90
15257;DHT22;7731;50.720;6.912;2023-12-20T08:08:08;7.10;99.90
15257;DHT22;7731;50.720;6.912;2023-12-20T08:10:41;7.00;99.90
15257;DHT22;7731;50.720;6.912;2023-12-20T08:13:11;7.10;99.90
15257;DHT22;7731;50.720;6.912;2023-12-20T08:15:41;7.20;99.90
15257;DHT22;7731;50.720;6.912;2023-12-20T08:18:12;7.10;99.90
15257;DHT22;7731;50.720;6.912;2023-12-20T08:20:42;7.10;99.90
15257;DHT22;7731;50.720;6.912;2023-12-20T08:23:13;7.20;99.90
15257;DHT22;7731;50.720;6.912;2023-12-20T08:25:46;7.30;99.90
15257;DHT22;7731;50.720;6.912;2023-12-20T08:28:16;7.30;99.90
15257;DHT22;7731;50.720;6.912;2023-12-20T08:30:46;7.30;99.90
15257;DHT22;7731;50.720;6.912;2023-12-20T08:33:21;7.50;99.90
15257;DHT22;7731;50.720;6.912;2023-12-20T08:35:53;7.50;99.90
15257;DHT22;7731;50.720;6.912;2023-12-20T08:38:24;7.50;99.90
15257;DHT22;7731;50.720;6.912;2023-12-20T08:40:57;7.60;99.90
15257;DHT22;7731;50.720;6.912;2023-12-20T08:43:28;7.70;99.90
15257;DHT22;7731;50.720;6.912;2023-12-20T08:45:59;7.60;99.90
15257;DHT22;7731;50.720;6.912;2023-12-20T08:48:30;7.40;99.90
15257;DHT22;7731;50.720;6.912;2023-12-20T08:51:01;7.30;99.90
15257;DHT22;7731;50.720;6.912;2023-12-20T08:53:31;7.30;99.90
15257;DHT22;7731;50.720;6.912;2023-12-20T08:56:04;7.40;99.90
15257;DHT22;7731;50.720;6.912;2023-12-20T08:58:35;7.50;99.90
15257;DHT22;7731;50.720;6.912;2023-12-20T09:01:05;7.60;99.90
15257;DHT22;7731;50.720;6.912;2023-12-20T09:03:36;7.80;99.90
15257;DHT22;7731;50.720;6.912;2023-12-20T09:06:06;7.90;99.90
15257;DHT22;7731;50.720;6.912;2023-12-20T09:08:37;8.20;99.90
15257;DHT22;7731;50.720;6.912;2023-12-20T09:11:10;8.40;99.90
15257;DHT22;7731;50.720;6.912;2023-12-20T09:13:41;8.50;99.90
15257;DHT22;7731;50.720;6.912;2023-12-20T09:16:12;8.80;99.90
15257;DHT22;7731;50.720;6.912;2023-12-20T09:18:43;9.30;99.90
15257;DHT22;7731;50.720;6.912;2023-12-20T09:21:13;9.50;99.90
15257;DHT22;7731;50.720;6.912;2023-12-20T09:23:43;9.50;99.90
15257;DHT22;7731;50.720;6.912;2023-12-20T09:26:19;9.80;99.90
15257;DHT22;7731;50.720;6.912;2023-12-20T09:28:49;9.90;99.90
15257;DHT22;7731;50.720;6.912;2023-12-20T09:31:19;9.70;99.90
15257;DHT22;7731;50.720;6.912;2023-12-20T09:33:49;9.40;99.90
15257;DHT22;7731;50.720;6.912;2023-12-20T09:36:20;9.10;99.90
15257;DHT22;7731;50.720;6.912;2023-12-20T09:38:50;8.90;99.90
15257;DHT22;7731;50.720;6.912;2023-12-20T09:41:27;8.90;99.90
15257;DHT22;7731;50.720;6.912;2023-12-20T09:44:03;8.70;99.90
15257;DHT22;7731;50.720;6.912;2023-12-20T09:46:35;8.50;99.90
15257;DHT22;7731;50.720;6.912;2023-12-20T09:49:08;8.40;99.90
15257;DHT22;7731;50.720;6.912;2023-12-20T09:51:41;8.20;99.90
15257;DHT22;7731;50.720;6.912;2023-12-20T09:54:14;8.10;99.90
15257;DHT22;7731;50.720;6.912;2023-12-20T09:56:48;8.10;99.90
15257;DHT22;7731;50.720;6.912;2023-12-20T09:59:19;8.00;99.90
15257;DHT22;7731;50.720;6.912;2023-12-20T10:01:50;7.80;99.90
15257;DHT22;7731;50.720;6.912;2023-12-20T10:04:24;7.80;99.90
15257;DHT22;7731;50.720;6.912;2023-12-20T10:07:02;7.90;99.90
15257;DHT22;7731;50.720;6.912;2023-12-20T10:09:34;7.90;99.90
15257;DHT22;7731;50.720;6.912;2023-12-20T10:12:07;7.80;99.90
15257;DHT22;7731;50.720;6.912;2023-12-20T10:14:39;7.70;99.90
15257;DHT22;7731;50.720;6.912;2023-12-20T10:17:09;7.60;99.90
15257;DHT22;7731;50.720;6.912;2023-12-20T10:19:39;7.80;99.90
15257;DHT22;7731;50.720;6.912;2023-12-20T10:22:10;7.90;99.90
15257;DHT22;7731;50.720;6.912;2023-12-20T10:24:41;7.90;99.90
15257;DHT22;7731;50.720;6.912;2023-12-20T10:27:18;7.90;99.90
15257;DHT22;7731;50.720;6.912;2023-12-20T10:29:49;7.90;99.90
15257;DHT22;7731;50.720;6.912;2023-12-20T10:32:25;7.90;99.90
15257;DHT22;7731;50.720;6.912;2023-12-20T10:34:57;8.00;99.90
15257;DHT22;7731;50.720;6.912;2023-12-20T10:37:27;8.00;99.90
15257;DHT22;7731;50.720;6.912;2023-12-20T10:40:01;7.90;99.90
15257;DHT22;7731;50.720;6.912;2023-12-20T10:42:36;7.90;99.90
15257;DHT22;7731;50.720;6.912;2023-12-20T10:45:10;8.00;99.90
15257;DHT22;7731;50.720;6.912;2023-12-20T10:47:40;8.00;99.90
15257;DHT22;7731;50.720;6.912;2023-12-20T10:50:15;8.00;99.90
15257;DHT22;7731;50.720;6.912;2023-12-20T10:52:47;7.90;99.90
15257;DHT22;7731;50.720;6.912;2023-12-20T10:55:22;7.90;99.90
15257;DHT22;7731;50.720;6.912;2023-12-20T10:58:01;7.80;99.90
15257;DHT22;7731;50.720;6.912;2023-12-20T11:00:40;7.70;99.90
15257;DHT22;7731;50.720;6.912;2023-12-20T11:03:13;7.70;99.90
15257;DHT22;7731;50.720;6.912;2023-12-20T11:05:50;7.90;99.90
15257;DHT22;7731;50.720;6.912;2023-12-20T11:08:36;8.20;99.90
15257;DHT22;7731;50.720;6.912;2023-12-20T11:11:27;8.20;99.90
15257;DHT22;7731;50.720;6.912;2023-12-20T11:14:08;8.20;99.90
15257;DHT22;7731;50.720;6.912;2023-12-20T11:16:45;8.30;99.90
15257;DHT22;7731;50.720;6.912;2023-12-20T11:19:21;8.40;99.90
15257;DHT22;7731;50.720;6.912;2023-12-20T11:21:52;8.20;99.90
15257;DHT22;7731;50.720;6.912;2023-12-20T11:24:25;8.20;99.90
15257;DHT22;7731;50.720;6.912;2023-12-20T11:26:56;8.10;99.90
15257;DHT22;7731;50.720;6.912;2023-12-20T11:29:34;8.10;99.90
15257;DHT22;7731;50.720;6.912;2023-12-20T11:32:28;8.20;99.90
15257;DHT22;7731;50.720;6.912;2023-12-20T11:35:00;8.20;99.90
15257;DHT22;7731;50.720;6.912;2023-12-20T11:37:46;8.20;99.90
15257;DHT22;7731;50.720;6.912;2023-12-20T11:40:18;8.30;99.90
15257;DHT22;7731;50.720;6.912;2023-12-20T11:42:50;8.10;99.90
15257;DHT22;7731;50.720;6.912;2023-12-20T11:45:26;8.00;99.90
15257;DHT22;7731;50.720;6.912;2023-12-20T11:47:58;8.00;99.90
15257;DHT22;7731;50.720;6.912;2023-12-20T11:50:29;8.10;99.90
15257;DHT22;7731;50.720;6.912;2023-12-20T11:53:00;8.10;99.90
15257;DHT22;7731;50.720;6.912;2023-12-20T11:55:30;8.20;99.90
15257;DHT22;7731;50.720;6.912;2023-12-20T11:58:02;8.20;99.90
15257;DHT22;7731;50.720;6.912;2023-12-20T12:00:35;8.20;99.90
15257;DHT22;7731;50.720;6.912;2023-12-20T12:03:05;8.30;99.90
15257;DHT22;7731;50.720;6.912;2023-12-20T12:05:35;8.30;99.90
15257;DHT22;7731;50.720;6.912;2023-12-20T12:08:06;8.50;99.90
15257;DHT22;7731;50.720;6.912;2023-12-20T12:10:37;8.40;99.90
15257;DHT22;7731;50.720;6.912;2023-12-20T12:13:07;8.40;99.90
15257;DHT22;7731;50.720;6.912;2023-12-20T12:15:40;8.50;99.90
15257;DHT22;7731;50.720;6.912;2023-12-20T12:18:15;8.50;99.90
15257;DHT22;7731;50.720;6.912;2023-12-20T12:20:46;8.50;99.90
15257;DHT22;7731;50.720;6.912;2023-12-20T12:23:23;8.40;99.90
15257;DHT22;7731;50.720;6.912;2023-12-20T12:25:55;8.40;99.90
15257;DHT22;7731;50.720;6.912;2023-12-20T12:28:26;8.30;99.90
15257;DHT22;7731;50.720;6.912;2023-12-20T12:31:03;8.30;99.90
15257;DHT22;7731;50.720;6.912;2023-12-20T12:33:33;8.40;99.90
15257;DHT22;7731;50.720;6.912;2023-12-20T12:36:06;8.30;99.90
15257;DHT22;7731;50.720;6.912;2023-12-20T12:38:38;8.30;99.90
15257;DHT22;7731;50.720;6.912;2023-12-20T12:41:08;8.30;99.90
15257;DHT22;7731;50.720;6.912;2023-12-20T12:43:41;8.30;99.90
15257;DHT22;7731;50.720;6.912;2023-12-20T12:46:14;8.30;99.90
15257;DHT22;7731;50.720;6.912;2023-12-20T12:48:45;8.20;99.90
15257;DHT22;7731;50.720;6.912;2023-12-20T12:51:17;8.20;99.90
15257;DHT22;7731;50.720;6.912;2023-12-20T12:53:47;8.20;99.90
15257;DHT22;7731;50.720;6.912;2023-12-20T12:56:18;8.20;99.90
15257;DHT22;7731;50.720;6.912;2023-12-20T12:58:49;8.10;99.90
15257;DHT22;7731;50.720;6.912;2023-12-20T13:01:22;8.10;99.90
15257;DHT22;7731;50.720;6.912;2023-12-20T13:03:52;8.10;99.90
15257;DHT22;7731;50.720;6.912;2023-12-20T13:06:23;8.10;99.90
15257;DHT22;7731;50.720;6.912;2023-12-20T13:08:54;8.10;99.90
15257;DHT22;7731;50.720;6.912;2023-12-20T13:11:25;7.90;99.90
15257;DHT22;7731;50.720;6.912;2023-12-20T13:13:55;8.00;99.90
15257;DHT22;7731;50.720;6.912;2023-12-20T13:16:28;7.90;99.90
15257;DHT22;7731;50.720;6.912;2023-12-20T13:18:58;7.90;99.90
15257;DHT22;7731;50.720;6.912;2023-12-20T13:21:29;7.90;99.90
15257;DHT22;7731;50.720;6.912;2023-12-20T13:24:02;8.00;99.90
15257;DHT22;7731;50.720;6.912;2023-12-20T13:26:33;8.00;99.90
15257;DHT22;7731;50.720;6.912;2023-12-20T13:29:03;7.90;99.90
15257;DHT22;7731;50.720;6.912;2023-12-20T13:31:38;7.90;99.90
15257;DHT22;7731;50.720;6.912;2023-12-20T13:34:09;7.90;99.90
15257;DHT22;7731;50.720;6.912;2023-12-20T13:36:40;7.80;99.90
15257;DHT22;7731;50.720;6.912;2023-12-20T13:39:13;7.70;99.90
15257;DHT22;7731;50.720;6.912;2023-12-20T13:41:43;7.70;99.90
15257;DHT22;7731;50.720;6.912;2023-12-20T13:44:13;7.60;99.90
15257;DHT22;7731;50.720;6.912;2023-12-20T13:46:46;7.50;99.90
15257;DHT22;7731;50.720;6.912;2023-12-20T13:49:20;7.40;99.90
15257;DHT22;7731;50.720;6.912;2023-12-20T13:51:53;7.40;99.90
15257;DHT22;7731;50.720;6.912;2023-12-20T13:54:25;7.30;99.90
15257;DHT22;7731;50.720;6.912;2023-12-20T13:56:55;7.20;99.90
15257;DHT22;7731;50.720;6.912;2023-12-20T13:59:38;7.20;99.90
15257;DHT22;7731;50.720;6.912;2023-12-20T14:02:11;7.20;99.90
15257;DHT22;7731;50.720;6.912;2023-12-20T14:04:43;7.20;99.90
15257;DHT22;7731;50.720;6.912;2023-12-20T14:07:13;7.20;99.90
15257;DHT22;7731;50.720;6.912;2023-12-20T14:09:44;7.20;99.90
15257;DHT22;7731;50.720;6.912;2023-12-20T14:12:15;7.20;99.90
15257;DHT22;7731;50.720;6.912;2023-12-20T14:14:47;7.30;99.90
15257;DHT22;7731;50.720;6.912;2023-12-20T14:17:20;7.40;99.90
15257;DHT22;7731;50.720;6.912;2023-12-20T14:19:50;7.40;99.90
15257;DHT22;7731;50.720;6.912;2023-12-20T14:22:22;7.40;99.90
15257;DHT22;7731;50.720;6.912;2023-12-20T14:24:53;7.40;99.90
15257;DHT22;7731;50.720;6.912;2023-12-20T14:27:24;7.30;99.90
15257;DHT22;7731;50.720;6.912;2023-12-20T14:29:55;7.30;99.90
15257;DHT22;7731;50.720;6.912;2023-12-20T14:32:28;7.40;99.90
15257;DHT22;7731;50.720;6.912;2023-12-20T14:34:58;7.40;99.90
15257;DHT22;7731;50.720;6.912;2023-12-20T14:37:29;7.30;99.90
15257;DHT22;7731;50.720;6.912;2023-12-20T14:39:59;7.40;99.90
15257;DHT22;7731;50.720;6.912;2023-12-20T14:42:29;7.50;99.90
15257;DHT22;7731;50.720;6.912;2023-12-20T14:45:00;7.50;99.90
15257;DHT22;7731;50.720;6.912;2023-12-20T14:47:33;7.50;99.90
15257;DHT22;7731;50.720;6.912;2023-12-20T14:50:06;7.40;99.90
15257;DHT22;7731;50.720;6.912;2023-12-20T14:52:39;7.50;99.90
15257;DHT22;7731;50.720;6.912;2023-12-20T14:55:09;7.40;99.90
15257;DHT22;7731;50.720;6.912;2023-12-20T14:57:39;7.50;99.90
15257;DHT22;7731;50.720;6.912;2023-12-20T15:00:10;7.70;99.90
15257;DHT22;7731;50.720;6.912;2023-12-20T15:02:47;7.70;99.90
15257;DHT22;7731;50.720;6.912;2023-12-20T15:05:17;7.70;99.90
15257;DHT22;7731;50.720;6.912;2023-12-20T15:07:50;7.60;99.90
15257;DHT22;7731;50.720;6.912;2023-12-20T15:10:21;7.60;99.90
15257;DHT22;7731;50.720;6.912;2023-12-20T15:12:51;7.70;99.90
15257;DHT22;7731;50.720;6.912;2023-12-20T15:15:24;7.80;99.90
15257;DHT22;7731;50.720;6.912;2023-12-20T15:17:58;7.90;99.90
15257;DHT22;7731;50.720;6.912;2023-12-20T15:20:30;7.80;99.90
15257;DHT22;7731;50.720;6.912;2023-12-20T15:23:01;7.60;99.90
15257;DHT22;7731;50.720;6.912;2023-12-20T15:25:35;7.60;99.90
15257;DHT22;7731;50.720;6.912;2023-12-20T15:28:08;7.60;99.90
15257;DHT22;7731;50.720;6.912;2023-12-20T15:30:39;7.60;99.90
15257;DHT22;7731;50.720;6.912;2023-12-20T15:33:14;7.60;99.90
15257;DHT22;7731;50.720;6.912;2023-12-20T15:35:44;7.60;99.90
15257;DHT22;7731;50.720;6.912;2023-12-20T15:38:14;7.60;99.90
15257;DHT22;7731;50.720;6.912;2023-12-20T15:40:45;7.50;99.90
15257;DHT22;7731;50.720;6.912;2023-12-20T15:43:15;7.50;99.90
15257;DHT22;7731;50.720;6.912;2023-12-20T15:45:48;7.40;99.90
15257;DHT22;7731;50.720;6.912;2023-12-20T15:48:21;7.40;99.90
15257;DHT22;7731;50.720;6.912;2023-12-20T15:50:56;7.40;99.90
15257;DHT22;7731;50.720;6.912;2023-12-20T15:53:26;7.50;99.90
15257;DHT22;7731;50.720;6.912;2023-12-20T15:55:57;7.40;99.90
15257;DHT22;7731;50.720;6.912;2023-12-20T15:58:28;7.40;99.90
15257;DHT22;7731;50.720;6.912;2023-12-20T16:01:00;7.40;99.90
15257;DHT22;7731;50.720;6.912;2023-12-20T16:03:33;7.40;99.90
15257;DHT22;7731;50.720;6.912;2023-12-20T16:06:12;7.50;99.90
15257;DHT22;7731;50.720;6.912;2023-12-20T16:08:43;7.60;99.90
15257;DHT22;7731;50.720;6.912;2023-12-20T16:11:13;7.60;99.90
15257;DHT22;7731;50.720;6.912;2023-12-20T16:13:44;7.70;99.90
15257;DHT22;7731;50.720;6.912;2023-12-20T16:16:15;7.60;99.90
15257;DHT22;7731;50.720;6.912;2023-12-20T16:18:47;7.50;99.90
15257;DHT22;7731;50.720;6.912;2023-12-20T16:21:20;7.40;99.90
15257;DHT22;7731;50.720;6.912;2023-12-20T16:23:51;7.50;99.90
15257;DHT22;7731;50.720;6.912;2023-12-20T16:26:21;7.50;99.90
15257;DHT22;7731;50.720;6.912;2023-12-20T16:28:51;7.40;99.90
15257;DHT22;7731;50.720;6.912;2023-12-20T16:31:21;7.40;99.90